createdAt,value
2022-09-28T00:01:33.504Z,58.42
2022-09-28T00:04:00.099Z,58.45
2022-09-28T00:06:27.960Z,58.87
2022-09-28T00:08:54.471Z,58.80
2022-09-28T00:11:21.707Z,58.78
2022-09-28T00:13:52.527Z,59.03
2022-09-28T00:16:20.210Z,58.49
2022-09-28T00:18:46.589Z,58.60
2022-09-28T00:21:17.422Z,58.82
2022-09-28T00:24:03.595Z,59.42
2022-09-28T00:26:31.460Z,59.12
2022-09-28T00:28:59.235Z,58.83
2022-09-28T00:31:26.551Z,58.50
2022-09-28T00:33:53.559Z,58.62
2022-09-28T00:36:19.907Z,58.62
2022-09-28T00:38:46.465Z,58.60
2022-09-28T00:41:13.211Z,58.89
2022-09-28T00:43:39.748Z,58.51
2022-09-28T00:46:12.858Z,58.75
2022-09-28T00:48:40.384Z,58.34
2022-09-28T00:51:09.892Z,58.57
2022-09-28T00:53:37.983Z,58.41
2022-09-28T00:56:11.219Z,58.54
2022-09-28T00:58:43.577Z,58.78
2022-09-28T01:01:10.087Z,58.84
2022-09-28T01:03:37.682Z,59.24
2022-09-28T01:06:04.875Z,58.76
2022-09-28T01:08:32.797Z,58.51
2022-09-28T01:10:59.982Z,58.20
2022-09-28T01:13:27.016Z,58.20
2022-09-28T01:15:53.350Z,58.10
2022-09-28T01:18:26.288Z,59.08
2022-09-28T01:21:25.168Z,58.44
2022-09-28T01:24:10.952Z,58.23
2022-09-28T01:26:40.362Z,58.57
2022-09-28T01:29:15.837Z,58.11
2022-09-28T01:31:44.296Z,57.96
2022-09-28T01:34:16.005Z,58.08
2022-09-28T01:36:46.983Z,57.99
2022-09-28T01:39:16.563Z,58.03
2022-09-28T01:41:44.783Z,58.24
2022-09-28T01:44:12.981Z,58.11
2022-09-28T01:46:42.125Z,58.07
2022-09-28T01:49:11.092Z,58.14
2022-09-28T01:52:00.461Z,58.00
2022-09-28T01:54:31.588Z,58.02
2022-09-28T01:57:00.509Z,58.13
2022-09-28T01:59:29.483Z,57.93
2022-09-28T02:01:59.559Z,57.90
2022-09-28T02:04:36.166Z,57.79
2022-09-28T02:07:06.446Z,58.11
2022-09-28T02:09:36.348Z,58.20
2022-09-28T02:12:23.363Z,58.21
2022-09-28T02:14:49.799Z,58.44
2022-09-28T02:17:16.302Z,58.51
2022-09-28T02:19:43.157Z,58.14
2022-09-28T02:22:09.511Z,57.72
2022-09-28T02:24:40.899Z,58.42
2022-09-28T02:27:14.092Z,57.95
2022-09-28T02:29:40.450Z,58.04
2022-09-28T02:32:06.952Z,57.91
2022-09-28T02:34:33.480Z,58.06
2022-09-28T02:37:00.108Z,58.08
2022-09-28T02:39:26.936Z,58.21
2022-09-28T02:42:05.693Z,57.80
2022-09-28T02:44:47.229Z,57.94
2022-09-28T02:47:25.688Z,57.62
2022-09-28T02:49:55.140Z,57.80
2022-09-28T02:52:51.118Z,58.09
2022-09-28T02:55:18.563Z,57.90
2022-09-28T02:57:57.482Z,58.28
2022-09-28T03:00:24.252Z,58.29
2022-09-28T03:03:05.937Z,57.95
2022-09-28T03:05:38.790Z,58.34
2022-09-28T03:08:05.102Z,57.86
2022-09-28T03:10:49.767Z,58.18
2022-09-28T03:13:16.733Z,58.46
2022-09-28T03:15:48.565Z,57.97
2022-09-28T03:18:15.443Z,58.70
2022-09-28T03:20:41.910Z,57.98
2022-09-28T03:23:25.122Z,58.00
2022-09-28T03:25:51.870Z,58.26
2022-09-28T03:28:18.266Z,57.87
2022-09-28T03:30:44.587Z,57.83
2022-09-28T03:33:10.964Z,57.93
2022-09-28T03:35:37.314Z,58.12
2022-09-28T03:38:03.672Z,58.36
2022-09-28T03:40:30.085Z,58.13
2022-09-28T03:42:56.668Z,57.79
2022-09-28T03:45:23.021Z,57.80
2022-09-28T03:47:49.421Z,57.91
2022-09-28T03:50:15.880Z,57.96
2022-09-28T03:52:42.369Z,57.90
2022-09-28T03:55:08.913Z,57.87
2022-09-28T03:57:35.326Z,58.03
2022-09-28T04:00:01.994Z,57.78
2022-09-28T04:02:28.478Z,58.24
2022-09-28T04:04:54.880Z,58.38
2022-09-28T04:07:21.221Z,58.55
2022-09-28T04:09:47.543Z,58.42
2022-09-28T04:12:14.151Z,58.50
2022-09-28T04:14:40.484Z,58.58
2022-09-28T04:17:07.228Z,58.33
2022-09-28T04:19:33.764Z,58.43
2022-09-28T04:22:01.751Z,58.28
2022-09-28T04:24:28.118Z,58.48
2022-09-28T04:27:14.406Z,58.58
2022-09-28T04:29:43.169Z,58.70
2022-09-28T04:32:10.179Z,58.67
2022-09-28T04:34:39.601Z,58.46
2022-09-28T04:37:08.322Z,58.35
2022-09-28T04:39:34.694Z,58.37
2022-09-28T04:42:01.657Z,58.47
2022-09-28T04:44:28.068Z,58.60
2022-09-28T04:46:55.419Z,58.88
2022-09-28T04:49:21.739Z,58.77
2022-09-28T04:51:48.137Z,58.52
2022-09-28T04:54:14.512Z,58.57
2022-09-28T04:56:41.812Z,58.75
2022-09-28T04:59:08.135Z,58.60
2022-09-28T05:01:34.817Z,58.66
2022-09-28T05:04:01.280Z,58.23
2022-09-28T05:06:30.545Z,58.18
2022-09-28T05:08:57.526Z,58.08
2022-09-28T05:11:24.312Z,57.80
2022-09-28T05:13:51.767Z,57.81
2022-09-28T05:16:18.217Z,57.88
2022-09-28T05:18:46.675Z,58.26
2022-09-28T05:21:13.912Z,57.83
2022-09-28T05:23:40.922Z,58.09
2022-09-28T05:26:07.744Z,58.03
2022-09-28T05:28:34.258Z,57.93
2022-09-28T05:31:01.122Z,58.12
2022-09-28T05:33:28.191Z,57.87
2022-09-28T05:35:59.016Z,57.65
2022-09-28T05:38:27.370Z,57.40
2022-09-28T05:40:53.841Z,57.92
2022-09-28T05:43:20.340Z,57.73
2022-09-28T05:45:47.817Z,57.75
2022-09-28T05:48:15.737Z,57.83
2022-09-28T05:50:42.192Z,58.00
2022-09-28T05:53:09.554Z,58.04
2022-09-28T05:55:36.295Z,57.95
2022-09-28T05:58:04.204Z,57.98
2022-09-28T06:00:31.134Z,57.82
2022-09-28T06:02:57.518Z,57.95
2022-09-28T06:05:24.499Z,57.95
2022-09-28T06:07:50.859Z,57.81
2022-09-28T06:10:18.067Z,57.91
2022-09-28T06:12:45.593Z,57.84
2022-09-28T06:15:12.262Z,57.96
2022-09-28T06:17:38.645Z,57.95
2022-09-28T06:20:05.188Z,57.62
2022-09-28T06:22:31.557Z,57.77
2022-09-28T06:24:57.913Z,57.87
2022-09-28T06:27:24.325Z,57.88
2022-09-28T06:29:50.714Z,57.88
2022-09-28T06:32:17.055Z,57.66
2022-09-28T06:34:43.398Z,57.83
2022-09-28T06:37:09.768Z,57.67
2022-09-28T06:39:36.114Z,58.21
2022-09-28T06:42:03.902Z,57.97
2022-09-28T06:44:32.280Z,58.00
2022-09-28T06:46:58.656Z,58.19
2022-09-28T06:49:29.201Z,58.43
2022-09-28T06:51:55.740Z,58.73
2022-09-28T06:54:25.705Z,58.70
2022-09-28T06:56:52.703Z,58.53
2022-09-28T06:59:19.039Z,58.52
2022-09-28T07:01:45.438Z,58.35
2022-09-28T07:04:11.839Z,58.28
2022-09-28T07:06:38.588Z,58.31
2022-09-28T07:09:21.359Z,58.46
2022-09-28T07:11:53.763Z,58.42
2022-09-28T07:14:39.679Z,58.39
2022-09-28T07:17:13.563Z,58.45
2022-09-28T07:19:40.730Z,58.48
2022-09-28T07:22:07.110Z,58.49
2022-09-28T07:24:33.561Z,58.55
2022-09-28T07:26:59.923Z,58.46
2022-09-28T07:29:26.352Z,58.43
2022-09-28T07:31:53.502Z,58.60
2022-09-28T07:34:23.075Z,58.52
2022-09-28T07:36:49.456Z,58.70
2022-09-28T07:39:15.859Z,58.68
2022-09-28T07:41:43.046Z,58.62
2022-09-28T07:44:09.381Z,58.73
2022-09-28T07:46:36.107Z,58.78
2022-09-28T07:49:08.353Z,58.65
2022-09-28T07:51:37.870Z,58.59
2022-09-28T07:54:04.337Z,58.52
2022-09-28T07:56:30.997Z,58.83
2022-09-28T07:58:57.355Z,58.78
2022-09-28T08:01:23.727Z,58.73
2022-09-28T08:03:50.177Z,58.65
2022-09-28T08:06:17.159Z,58.80
2022-09-28T08:08:44.655Z,58.73
2022-09-28T08:11:12.021Z,58.77
2022-09-28T08:13:38.938Z,58.67
2022-09-28T08:16:07.493Z,58.47
2022-09-28T08:18:34.779Z,58.40
2022-09-28T08:21:23.761Z,58.77
2022-09-28T08:23:50.612Z,58.77
2022-09-28T08:26:16.985Z,58.66
2022-09-28T08:28:45.036Z,58.60
2022-09-28T08:31:11.647Z,58.58
2022-09-28T08:33:38.479Z,58.57
2022-09-28T08:36:06.032Z,58.74
2022-09-28T08:38:32.887Z,58.62
2022-09-28T08:41:05.168Z,58.50
2022-09-28T08:43:50.477Z,58.88
2022-09-28T08:46:22.687Z,58.76
2022-09-28T08:49:13.484Z,58.52
2022-09-28T08:51:43.754Z,58.66
2022-09-28T08:54:18.662Z,58.62
2022-09-28T08:56:49.172Z,58.66
2022-09-28T08:59:24.343Z,58.54
2022-09-28T09:01:57.688Z,58.65
2022-09-28T09:04:24.659Z,58.69
2022-09-28T09:06:57.304Z,58.30
2022-09-28T09:09:45.484Z,58.62
2022-09-28T09:12:21.359Z,58.61
2022-09-28T09:14:50.752Z,58.54
2022-09-28T09:17:29.301Z,58.70
2022-09-28T09:20:03.086Z,58.63
2022-09-28T09:22:38.674Z,58.55
2022-09-28T09:25:07.889Z,58.67
2022-09-28T09:27:53.471Z,58.42
2022-09-28T09:30:22.086Z,58.19
2022-09-28T09:33:06.993Z,58.36
2022-09-28T09:35:33.360Z,58.37
2022-09-28T09:38:11.810Z,58.31
2022-09-28T09:40:47.488Z,58.23
2022-09-28T09:43:27.924Z,58.23
2022-09-28T09:46:06.847Z,58.42
2022-09-28T09:48:48.822Z,58.22
2022-09-28T09:51:25.004Z,58.12
2022-09-28T09:54:00.067Z,58.21
2022-09-28T09:56:32.261Z,58.26
2022-09-28T09:59:02.746Z,58.29
2022-09-28T10:01:40.382Z,58.34
2022-09-28T10:04:11.959Z,58.21
2022-09-28T10:06:39.093Z,58.21
2022-09-28T10:09:08.531Z,58.26
2022-09-28T10:11:42.470Z,58.34
2022-09-28T10:14:13.697Z,58.19
2022-09-28T10:16:40.128Z,58.06
2022-09-28T10:19:08.539Z,58.01
2022-09-28T10:21:37.650Z,58.14
2022-09-28T10:24:04.076Z,58.04
2022-09-28T10:26:36.000Z,58.06
2022-09-28T10:29:04.552Z,58.25
2022-09-28T10:31:35.117Z,58.04
2022-09-28T10:34:01.666Z,58.34
2022-09-28T10:36:37.964Z,58.28
2022-09-28T10:39:05.507Z,58.06
2022-09-28T10:41:32.364Z,58.06
2022-09-28T10:44:07.491Z,57.99
2022-09-28T10:46:34.841Z,58.12
2022-09-28T10:49:04.135Z,58.18
2022-09-28T10:51:44.114Z,58.03
2022-09-28T10:54:18.796Z,58.21
2022-09-28T10:56:45.843Z,58.16
2022-09-28T10:59:30.558Z,58.19
2022-09-28T11:01:59.475Z,58.27
2022-09-28T11:04:27.555Z,58.16
2022-09-28T11:06:56.527Z,58.20
2022-09-28T11:09:24.000Z,58.50
2022-09-28T11:11:51.843Z,58.63
2022-09-28T11:14:24.304Z,58.47
2022-09-28T11:17:10.744Z,58.39
2022-09-28T11:19:37.058Z,58.56
2022-09-28T11:22:20.149Z,58.50
2022-09-28T11:24:47.256Z,58.48
2022-09-28T11:27:22.049Z,58.54
2022-09-28T11:29:55.655Z,58.32
2022-09-28T11:32:26.751Z,58.37
2022-09-28T11:34:59.510Z,58.47
2022-09-28T11:37:31.045Z,58.38
2022-09-28T11:40:18.124Z,58.17
2022-09-28T11:43:03.224Z,58.70
2022-09-28T11:45:35.498Z,58.83
2022-09-28T11:48:04.734Z,58.77
2022-09-28T11:50:31.156Z,58.44
2022-09-28T11:53:01.741Z,58.49
2022-09-28T11:55:31.339Z,58.39
2022-09-28T11:58:03.539Z,58.47
2022-09-28T12:00:33.573Z,58.38
2022-09-28T12:03:29.434Z,58.77
2022-09-28T12:05:59.626Z,58.72
2022-09-28T12:08:27.325Z,58.65
2022-09-28T12:11:12.488Z,58.85
2022-09-28T12:13:41.179Z,58.67
2022-09-28T12:16:53.176Z,58.69
2022-09-28T12:19:18.615Z,58.67
2022-09-28T12:22:00.872Z,58.62
2022-09-28T12:24:44.387Z,58.80
2022-09-28T12:27:21.466Z,58.91
2022-09-28T12:29:57.145Z,59.08
2022-09-28T12:32:29.270Z,58.85
2022-09-28T12:34:56.042Z,58.96
2022-09-28T12:37:25.791Z,59.11
2022-09-28T12:40:02.891Z,59.24
2022-09-28T12:42:30.114Z,58.83
2022-09-28T12:45:17.700Z,58.86
2022-09-28T12:47:50.187Z,59.11
2022-09-28T12:53:15.371Z,58.95
2022-09-28T12:55:51.064Z,59.02
2022-09-28T12:58:29.587Z,58.86
2022-09-28T13:01:11.383Z,58.83
2022-09-28T13:03:37.829Z,59.16
2022-09-28T13:06:05.346Z,58.88
2022-09-28T13:08:37.841Z,58.76
2022-09-28T13:11:22.561Z,58.69
2022-09-28T13:13:53.044Z,58.75
2022-09-28T13:16:19.431Z,59.08
2022-09-28T13:18:48.603Z,58.92
2022-09-28T13:21:22.822Z,59.21
2022-09-28T13:23:50.809Z,59.08
2022-09-28T13:26:17.400Z,59.05
2022-09-28T13:28:45.417Z,59.16
2022-09-28T13:31:12.681Z,59.06
2022-09-28T13:33:40.621Z,59.10
2022-09-28T13:36:25.418Z,59.05
2022-09-28T13:38:52.486Z,59.19
2022-09-28T13:41:24.755Z,59.02
2022-09-28T13:43:57.278Z,59.06
2022-09-28T13:46:42.424Z,59.09
2022-09-28T13:49:15.181Z,59.03
2022-09-28T13:51:41.865Z,59.13
2022-09-28T13:54:46.592Z,59.24
2022-09-28T13:57:32.964Z,59.04
2022-09-28T14:00:11.909Z,59.28
2022-09-28T14:02:46.756Z,59.16
2022-09-28T14:05:31.629Z,59.22
2022-09-28T14:08:11.339Z,59.26
2022-09-28T14:10:54.766Z,59.18
2022-09-28T14:13:40.080Z,59.26
2022-09-28T14:16:18.865Z,59.08
2022-09-28T14:18:49.573Z,58.98
2022-09-28T14:21:22.039Z,59.19
2022-09-28T14:24:08.037Z,59.08
2022-09-28T14:26:52.615Z,59.10
2022-09-28T14:29:22.131Z,59.08
2022-09-28T14:31:48.555Z,58.97
2022-09-28T14:34:32.667Z,59.17
2022-09-28T14:37:18.467Z,59.01
2022-09-28T14:40:04.456Z,58.83
2022-09-28T14:42:30.843Z,58.97
2022-09-28T14:45:06.725Z,59.16
2022-09-28T14:47:43.435Z,58.92
2022-09-28T14:50:23.186Z,59.03
2022-09-28T14:52:51.488Z,59.15
2022-09-28T14:55:20.997Z,59.02
2022-09-28T14:57:52.839Z,58.93
2022-09-28T15:00:24.456Z,59.05
2022-09-28T15:02:52.736Z,59.00
2022-09-28T15:05:24.555Z,59.02
2022-09-28T15:07:52.659Z,59.04
2022-09-28T15:10:27.475Z,59.02
2022-09-28T15:12:56.005Z,59.03
2022-09-28T15:15:30.466Z,58.83
2022-09-28T15:18:04.143Z,58.93
2022-09-28T15:20:32.270Z,58.91
2022-09-28T15:22:59.191Z,58.85
2022-09-28T15:25:27.060Z,58.91
2022-09-28T15:27:54.912Z,58.84
2022-09-28T15:30:25.830Z,58.90
2022-09-28T15:32:54.713Z,58.89
2022-09-28T15:35:22.350Z,58.88
2022-09-28T15:37:52.228Z,58.92
2022-09-28T15:40:28.854Z,59.11
2022-09-28T15:42:59.047Z,58.81
2022-09-28T15:45:27.666Z,58.77
2022-09-28T15:47:57.640Z,58.85
2022-09-28T15:50:31.677Z,58.86
2022-09-28T15:53:02.380Z,58.85
2022-09-28T15:55:30.864Z,58.80
2022-09-28T15:58:12.578Z,58.89
2022-09-28T16:00:40.225Z,58.91
2022-09-28T16:03:07.204Z,58.99
2022-09-28T16:05:40.942Z,58.84
2022-09-28T16:08:14.230Z,58.98
2022-09-28T16:10:53.356Z,58.91
2022-09-28T16:13:21.125Z,59.03
2022-09-28T16:15:55.146Z,58.97
2022-09-28T16:18:23.575Z,58.74
2022-09-28T16:20:51.755Z,58.80
2022-09-28T16:23:21.507Z,58.68
2022-09-28T16:26:03.480Z,58.79
2022-09-28T16:28:34.580Z,58.80
2022-09-28T16:31:06.061Z,58.76
2022-09-28T16:33:39.676Z,58.48
2022-09-28T16:36:11.020Z,58.60
2022-09-28T16:38:38.831Z,58.78
2022-09-28T16:41:05.921Z,58.80
2022-09-28T16:43:34.999Z,58.64
2022-09-28T16:46:12.832Z,58.83
2022-09-28T16:48:48.704Z,58.75
2022-09-28T16:51:15.715Z,58.81
2022-09-28T16:54:00.545Z,58.88
2022-09-28T16:56:27.796Z,58.68
2022-09-28T16:58:54.948Z,58.61
2022-09-28T17:01:22.199Z,58.78
2022-09-28T17:03:50.162Z,58.72
2022-09-28T17:06:20.558Z,58.63
2022-09-28T17:08:46.964Z,58.62
2022-09-28T17:11:18.126Z,58.63
2022-09-28T17:13:48.978Z,58.48
2022-09-28T17:16:17.893Z,58.56
2022-09-28T17:18:45.166Z,58.90
2022-09-28T17:21:13.045Z,58.60
2022-09-28T17:23:39.466Z,58.75
2022-09-28T17:26:06.232Z,58.67
2022-09-28T17:28:33.821Z,58.65
2022-09-28T17:31:00.297Z,58.72
2022-09-28T17:33:26.688Z,58.68
2022-09-28T17:35:57.695Z,58.60
2022-09-28T17:38:24.132Z,58.55
2022-09-28T17:40:50.666Z,58.50
2022-09-28T17:43:17.134Z,58.52
2022-09-28T17:45:46.188Z,58.67
2022-09-28T17:48:15.735Z,58.67
2022-09-28T17:50:46.375Z,58.56
2022-09-28T17:53:13.711Z,59.03
2022-09-28T17:55:40.507Z,58.82
2022-09-28T17:58:17.569Z,58.47
2022-09-28T18:00:45.498Z,58.50
2022-09-28T18:03:13.737Z,58.62
2022-09-28T18:05:40.198Z,58.73
2022-09-28T18:08:06.610Z,58.72
2022-09-28T18:10:32.967Z,58.80
2022-09-28T18:12:59.306Z,58.80
2022-09-28T18:15:25.648Z,58.81
2022-09-28T18:17:51.979Z,58.78
2022-09-28T18:20:18.427Z,58.77
2022-09-28T18:22:44.796Z,58.51
2022-09-28T18:25:11.197Z,58.42
2022-09-28T18:27:37.652Z,58.26
2022-09-28T18:30:04.696Z,58.12
2022-09-28T18:32:33.284Z,58.07
2022-09-28T18:34:59.747Z,58.23
2022-09-28T18:37:26.169Z,58.06
2022-09-28T18:39:52.515Z,58.26
2022-09-28T18:42:19.416Z,57.89
2022-09-28T18:44:45.752Z,57.93
2022-09-28T18:47:14.467Z,58.18
2022-09-28T18:49:44.739Z,58.08
2022-09-28T18:52:12.889Z,58.36
2022-09-28T18:54:40.262Z,58.54
2022-09-28T18:57:06.644Z,58.70
2022-09-28T18:59:33.052Z,58.84
2022-09-28T19:02:01.652Z,58.68
2022-09-28T19:04:28.145Z,58.72
2022-09-28T19:06:54.787Z,58.59
2022-09-28T19:09:22.235Z,58.44
2022-09-28T19:11:49.151Z,58.38
2022-09-28T19:14:15.972Z,58.21
2022-09-28T19:16:43.399Z,58.22
2022-09-28T19:19:12.356Z,58.35
2022-09-28T19:21:39.337Z,58.32
2022-09-28T19:24:05.809Z,58.26
2022-09-28T19:26:32.938Z,58.28
2022-09-28T19:28:59.891Z,58.35
2022-09-28T19:31:29.334Z,58.47
2022-09-28T19:33:55.763Z,58.37
2022-09-28T19:36:24.054Z,58.54
2022-09-28T19:38:51.511Z,58.35
2022-09-28T19:41:39.362Z,58.45
2022-09-28T19:44:29.662Z,58.63
2022-09-28T19:47:11.607Z,58.44
2022-09-28T19:49:39.295Z,58.42
2022-09-28T19:52:13.230Z,58.54
2022-09-28T19:54:57.319Z,58.47
2022-09-28T19:57:25.995Z,58.42
2022-09-28T19:59:54.995Z,58.44
2022-09-28T20:02:23.331Z,58.35
2022-09-28T20:04:49.932Z,58.41
2022-09-28T20:07:16.413Z,58.44
2022-09-28T20:09:42.807Z,58.49
2022-09-28T20:12:09.581Z,58.41
2022-09-28T20:14:38.239Z,58.39
2022-09-28T20:17:06.838Z,58.42
2022-09-28T20:19:33.568Z,58.48
2022-09-28T20:22:02.687Z,58.47
2022-09-28T20:24:29.339Z,58.35
2022-09-28T20:26:55.909Z,58.39
2022-09-28T20:29:23.082Z,58.16
2022-09-28T20:31:49.483Z,58.09
2022-09-28T20:34:15.879Z,58.16
2022-09-28T20:36:43.442Z,58.09
2022-09-28T20:39:10.230Z,58.20
2022-09-28T20:41:36.909Z,58.19
2022-09-28T20:44:05.911Z,58.05
2022-09-28T20:46:33.345Z,58.31
2022-09-28T20:48:59.911Z,58.33
2022-09-28T20:51:26.422Z,57.97
2022-09-28T20:53:54.023Z,58.14
2022-09-28T20:56:21.880Z,57.75
2022-09-28T20:58:50.656Z,58.15
2022-09-28T21:01:18.702Z,57.99
2022-09-28T21:03:47.006Z,57.97
2022-09-28T21:06:14.295Z,57.93
2022-09-28T21:08:41.191Z,57.67
2022-09-28T21:11:07.805Z,57.70
2022-09-28T21:13:34.210Z,57.52
2022-09-28T21:16:04.298Z,57.63
2022-09-28T21:18:30.783Z,57.05
2022-09-28T21:20:57.159Z,58.21
2022-09-28T21:23:25.100Z,58.03
2022-09-28T21:26:00.816Z,57.89
2022-09-28T21:28:27.150Z,57.94
2022-09-28T21:30:53.598Z,57.76
2022-09-28T21:33:19.934Z,58.14
2022-09-28T21:35:46.319Z,58.25
2022-09-28T21:38:12.616Z,58.23
2022-09-28T21:40:39.009Z,58.07
2022-09-28T21:43:05.385Z,58.23
2022-09-28T21:45:32.008Z,58.16
2022-09-28T21:48:00.663Z,58.04
2022-09-28T21:50:27.077Z,58.11
2022-09-28T21:52:54.413Z,58.07
2022-09-28T21:55:22.145Z,57.96
2022-09-28T21:57:50.671Z,58.07
2022-09-28T22:00:18.603Z,57.94
2022-09-28T22:02:45.412Z,57.76
2022-09-28T22:05:12.642Z,57.72
2022-09-28T22:07:39.907Z,57.15
2022-09-28T22:10:06.579Z,57.85
2022-09-28T22:12:33.015Z,57.18
2022-09-28T22:14:59.367Z,57.17
2022-09-28T22:17:25.726Z,57.02
2022-09-28T22:19:52.243Z,57.56
2022-09-28T22:22:18.676Z,57.02
2022-09-28T22:24:45.046Z,57.05
2022-09-28T22:27:11.486Z,56.97
2022-09-28T22:29:37.791Z,57.49
2022-09-28T22:32:04.176Z,57.19
2022-09-28T22:34:31.788Z,57.03
2022-09-28T22:36:58.792Z,57.11
2022-09-28T22:39:25.363Z,57.21
2022-09-28T22:41:52.572Z,57.25
2022-09-28T22:44:19.781Z,57.43
2022-09-28T22:46:46.633Z,57.59
2022-09-28T22:49:13.140Z,56.95
2022-09-28T22:51:39.753Z,57.26
2022-09-28T22:54:06.737Z,57.00
2022-09-28T22:56:33.491Z,57.49
2022-09-28T22:58:59.904Z,57.20
2022-09-28T23:01:27.674Z,57.26
2022-09-28T23:03:55.105Z,56.88
2022-09-28T23:06:22.671Z,56.91
2022-09-28T23:08:51.356Z,56.88
2022-09-28T23:11:17.984Z,57.23
2022-09-28T23:13:48.448Z,57.38
2022-09-28T23:16:15.078Z,56.95
2022-09-28T23:18:41.636Z,56.85
2022-09-28T23:21:10.783Z,56.71
2022-09-28T23:23:37.142Z,56.77
2022-09-28T23:26:13.611Z,56.68
2022-09-28T23:28:40.183Z,56.75
2022-09-28T23:31:10.913Z,56.54
2022-09-28T23:33:37.564Z,56.88
2022-09-28T23:36:04.012Z,56.73
2022-09-28T23:38:30.416Z,56.88
2022-09-28T23:40:57.005Z,56.71
2022-09-28T23:43:23.501Z,56.61
2022-09-28T23:45:49.886Z,56.40
2022-09-28T23:48:16.291Z,56.41
2022-09-28T23:50:43.538Z,56.85
2022-09-28T23:53:10.356Z,56.56
2022-09-28T23:55:36.680Z,56.41
2022-09-28T23:58:03.403Z,56.54
